Time;durP1;ratioP1;P1;durP2;ratioP2;P2;SDS_P1;SDS_P2;PMS_P1;PMS_P2;Temp;Humidity;BMP_temperature;BMP_pressure;BME280_temperature;BME280_humidity;BME280_pressure;Samples;Min_cycle;Max_cycle;Signal;HPM_P1;HPM_P2
2021/06/23 00:00:19;;;;;;;18.98;6.45;;;;;;;26.01;44.98;100320.31;5108124;28;20224;-62
2021/06/23 00:02:45;;;;;;;16.90;5.82;;;;;;;25.99;45.49;100310.59;5110568;28;20103;-61
2021/06/23 00:05:11;;;;;;;14.68;5.65;;;;;;;25.99;45.63;100310.59;5110553;28;20130;-61
2021/06/23 00:07:37;;;;;;;19.60;6.28;;;;;;;25.88;45.50;100290.16;5110132;28;20035;-61
2021/06/23 00:10:04;;;;;;;20.48;7.45;;;;;;;25.94;45.90;100316.75;5108550;28;20051;-61
2021/06/23 00:12:30;;;;;;;17.05;6.35;;;;;;;25.93;45.76;100310.41;5103722;28;20140;-60
2021/06/23 00:14:56;;;;;;;20.67;6.45;;;;;;;25.84;46.04;100298.00;5112505;28;20043;-60
2021/06/23 00:17:21;;;;;;;20.80;6.68;;;;;;;25.47;46.35;100242.75;5112406;28;20522;-61
2021/06/23 00:19:47;;;;;;;19.35;6.75;;;;;;;25.79;46.35;100298.63;5106007;27;20028;-60
2021/06/23 00:22:12;;;;;;;26.25;7.22;;;;;;;25.82;46.22;100307.47;5091782;28;20071;-60
2021/06/23 00:24:38;;;;;;;29.65;7.07;;;;;;;25.71;46.16;100296.13;5092165;28;20036;-61
2021/06/23 00:27:04;;;;;;;24.70;7.57;;;;;;;25.77;46.66;100319.06;5091985;28;20693;-61
2021/06/23 00:29:31;;;;;;;26.52;7.65;;;;;;;25.65;46.91;100297.78;5091641;28;20032;-61
2021/06/23 00:31:56;;;;;;;25.60;7.88;;;;;;;25.69;46.82;100316.56;5095295;28;20052;-61
2021/06/23 00:34:26;;;;;;;23.83;7.70;;;;;;;25.72;47.06;100319.75;5095267;28;20482;-61
2021/06/23 00:36:52;;;;;;;18.30;7.47;;;;;;;25.64;46.79;100303.47;5093480;28;20047;-60
2021/06/23 00:39:17;;;;;;;23.73;8.25;;;;;;;25.56;47.15;100293.59;5093535;28;20086;-61
2021/06/23 00:41:43;;;;;;;35.60;7.93;;;;;;;25.70;47.05;100312.75;5093743;28;20067;-60
2021/06/23 00:44:11;;;;;;;26.65;8.15;;;;;;;25.69;47.59;100313.81;5093730;28;20499;-61
2021/06/23 00:46:37;;;;;;;27.73;7.65;;;;;;;25.60;47.04;100292.13;5093419;28;20028;-61
2021/06/23 00:49:02;;;;;;;27.98;8.60;;;;;;;25.64;47.01;100309.81;5093700;28;20042;-60
2021/06/23 00:51:28;;;;;;;25.85;7.93;;;;;;;25.62;47.31;100306.44;5094037;28;20044;-59
2021/06/23 00:53:54;;;;;;;27.25;7.75;;;;;;;25.23;47.00;100253.28;5091941;28;20043;-64
2021/06/23 00:56:29;;;;;;;28.00;8.40;;;;;;;25.22;47.25;100257.09;5093095;28;20043;-61
2021/06/23 00:58:54;;;;;;;23.95;7.97;;;;;;;25.56;47.29;100312.78;5093767;28;20036;-61
2021/06/23 01:01:20;;;;;;;23.73;7.90;;;;;;;25.56;47.73;100312.78;5094561;28;20040;-59
2021/06/23 01:03:46;;;;;;;26.30;7.88;;;;;;;25.54;47.58;100320.34;5113434;28;20042;-61
2021/06/23 01:06:12;;;;;;;22.02;7.78;;;;;;;25.44;47.78;100300.72;5112675;28;20391;-61
2021/06/23 01:08:38;;;;;;;29.60;8.18;;;;;;;25.57;47.62;100321.84;5113788;28;20032;-61
2021/06/23 01:11:07;;;;;;;26.88;8.00;;;;;;;25.60;48.21;100318.66;5112449;28;20084;-60
2021/06/23 01:13:51;;;;;;;21.70;7.78;;;;;;;25.64;48.32;100319.94;5105787;28;20036;-60
2021/06/23 01:16:18;;;;;;;27.10;7.57;;;;;;;25.61;48.00;100314.88;5111031;28;20355;-61
2021/06/23 01:18:45;;;;;;;26.48;8.15;;;;;;;25.65;48.24;100327.97;5111502;28;20514;-60
2021/06/23 01:21:11;;;;;;;20.80;7.45;;;;;;;25.67;48.06;100319.50;5111827;28;20040;-62
2021/06/23 01:23:37;;;;;;;19.55;7.05;;;;;;;25.69;47.61;100328.41;5099360;28;20038;-61
2021/06/23 01:26:03;;;;;;;20.92;7.10;;;;;;;25.69;47.82;100330.28;5091650;28;20040;-62
2021/06/23 01:28:29;;;;;;;27.48;7.32;;;;;;;25.73;47.60;100334.28;5091931;28;20077;-61
2021/06/23 01:30:56;;;;;;;29.73;7.65;;;;;;;25.65;47.46;100322.47;5092954;28;20044;-61
2021/06/23 01:33:22;;;;;;;21.50;7.25;;;;;;;25.79;46.86;100322.44;5093604;28;20388;-62
2021/06/23 01:35:48;;;;;;;25.77;7.50;;;;;;;25.50;47.41;100277.97;5092804;28;20047;-62
2021/06/23 01:38:14;;;;;;;24.85;7.35;;;;;;;25.43;47.08;100264.22;5092998;28;20427;-61
2021/06/23 01:40:40;;;;;;;22.58;7.43;;;;;;;25.85;47.07;100324.38;5092599;28;20036;-62
2021/06/23 01:43:09;;;;;;;23.60;6.68;;;;;;;25.91;47.12;100336.34;5092516;28;20502;-59
2021/06/23 01:45:35;;;;;;;24.58;6.63;;;;;;;25.94;47.33;100331.31;5093124;27;20501;-59
2021/06/23 01:48:01;;;;;;;22.15;7.07;;;;;;;25.92;47.54;100327.06;5091902;28;20028;-62
2021/06/23 01:50:27;;;;;;;21.10;7.05;;;;;;;26.02;47.06;100332.13;5091281;28;20032;-62
2021/06/23 01:52:52;;;;;;;19.90;6.82;;;;;;;26.08;46.92;100337.59;5092280;28;20028;-62
2021/06/23 01:55:27;;;;;;;19.95;7.00;;;;;;;26.13;46.71;100327.88;5093287;28;20501;-61
2021/06/23 01:58:09;;;;;;;20.97;6.90;;;;;;;26.29;46.26;100343.09;5092405;28;20499;-63
2021/06/23 02:00:51;;;;;;;22.20;7.18;;;;;;;26.31;46.95;100336.31;5092665;28;20047;-62
2021/06/23 02:03:32;;;;;;;22.80;6.93;;;;;;;26.34;46.04;100343.28;5092329;28;20120;-61
2021/06/23 02:06:08;;;;;;;21.83;7.50;;;;;;;26.44;46.14;100340.91;5093334;28;20031;-61
2021/06/23 02:08:51;;;;;;;19.67;6.65;;;;;;;26.51;46.16;100338.97;5091833;28;20040;-62
2021/06/23 02:11:36;;;;;;;21.85;6.05;;;;;;;26.45;46.11;100322.56;5091795;28;20031;-61
2021/06/23 02:14:40;;;;;;;22.45;6.72;;;;;;;26.68;45.71;100341.25;5088141;28;20112;-61
2021/06/23 02:17:09;;;;;;;17.58;6.22;;;;;;;26.34;45.95;100280.97;5104843;28;20080;-61
2021/06/23 02:19:49;;;;;;;21.98;7.10;;;;;;;26.91;45.78;100339.91;5109041;28;20027;-61
2021/06/23 02:22:21;;;;;;;21.85;6.80;;;;;;;26.71;45.52;100291.38;5109916;28;20123;-62
2021/06/23 02:24:48;;;;;;;15.25;6.55;;;;;;;27.16;44.97;100344.63;5108591;28;20037;-60
2021/06/23 02:27:14;;;;;;;24.02;7.28;;;;;;;27.26;44.32;100327.63;5106607;28;20028;-61
2021/06/23 02:29:41;;;;;;;20.58;6.85;;;;;;;27.50;43.50;100347.97;5096964;28;20101;-62
2021/06/23 02:32:12;;;;;;;18.20;6.85;;;;;;;27.75;43.13;100353.50;5090045;28;20123;-62
2021/06/23 02:34:40;;;;;;;18.15;7.28;;;;;;;27.38;42.74;100248.88;5109323;28;20040;-62
2021/06/23 02:37:06;;;;;;;22.02;7.65;;;;;;;28.21;42.26;100334.88;5109315;28;20123;-60
2021/06/23 02:39:32;;;;;;;19.10;7.88;;;;;;;28.47;41.08;100330.13;5109599;28;20046;-60
2021/06/23 02:41:58;;;;;;;20.02;7.28;;;;;;;28.58;40.82;100289.97;5109472;28;20027;-61
2021/06/23 02:44:23;;;;;;;20.50;7.07;;;;;;;28.73;40.18;100273.00;5102562;28;20039;-60
2021/06/23 02:46:49;;;;;;;21.42;6.68;;;;;;;29.44;39.67;100333.06;5107944;27;20172;-61
2021/06/23 02:49:15;;;;;;;20.63;6.85;;;;;;;29.67;39.35;100328.66;5109301;28;20036;-61
2021/06/23 02:51:41;;;;;;;17.40;7.00;;;;;;;29.79;38.98;100334.16;5108965;28;20039;-61
2021/06/23 02:54:08;;;;;;;14.13;5.90;;;;;;;29.86;39.11;100329.38;5101047;28;20038;-61
2021/06/23 02:56:34;;;;;;;16.13;5.85;;;;;;;30.07;38.46;100329.88;5089787;28;20040;-61
2021/06/23 02:59:02;;;;;;;16.73;5.70;;;;;;;30.31;37.58;100340.88;5089012;28;20407;-61
2021/06/23 03:01:27;;;;;;;19.08;6.70;;;;;;;30.50;36.75;100316.69;5089566;28;20053;-60
2021/06/23 03:03:53;;;;;;;13.65;5.72;;;;;;;30.62;36.06;100302.88;5090538;28;20539;-60
2021/06/23 03:06:19;;;;;;;17.73;5.50;;;;;;;31.15;36.08;100333.16;5109109;28;20452;-60
2021/06/23 03:08:44;;;;;;;23.85;6.00;;;;;;;31.36;35.51;100329.72;5099674;28;20036;-59
2021/06/23 03:11:10;;;;;;;9.68;4.90;;;;;;;31.75;34.64;100336.38;5088883;28;20039;-59
2021/06/23 03:13:36;;;;;;;14.43;5.10;;;;;;;32.17;33.56;100333.16;5089528;28;20036;-60
2021/06/23 03:16:02;;;;;;;9.82;4.90;;;;;;;32.64;32.81;100342.91;5088220;28;20086;-60
2021/06/23 03:18:29;;;;;;;16.38;5.60;;;;;;;33.19;32.04;100336.59;5091647;28;20061;-59
2021/06/23 03:20:55;;;;;;;14.65;5.03;;;;;;;33.28;31.64;100290.63;5108146;28;20465;-60
2021/06/23 03:23:20;;;;;;;20.52;5.63;;;;;;;33.88;30.47;100329.41;5109292;28;20047;-60
2021/06/23 03:25:46;;;;;;;13.38;5.32;;;;;;;34.15;29.89;100335.97;5109102;28;20032;-60
2021/06/23 03:28:12;;;;;;;20.73;5.45;;;;;;;34.41;29.47;100338.88;5108778;28;20099;-61
2021/06/23 03:30:37;;;;;;;19.85;5.50;;;;;;;34.34;29.23;100289.09;5090966;28;20028;-63
2021/06/23 03:33:03;;;;;;;17.38;5.80;;;;;;;34.99;28.45;100343.50;5089239;28;20131;-61
2021/06/23 03:35:29;;;;;;;17.08;6.38;;;;;;;35.23;28.48;100327.19;5089623;28;20120;-63
2021/06/23 03:37:55;;;;;;;17.92;5.85;;;;;;;35.58;27.80;100344.19;5090679;28;20395;-61
2021/06/23 03:40:22;;;;;;;13.45;5.63;;;;;;;35.96;27.48;100341.88;5108290;28;20035;-60
2021/06/23 03:42:48;;;;;;;13.02;5.97;;;;;;;36.38;26.83;100345.41;5111431;28;20175;-63
2021/06/23 03:45:15;;;;;;;22.55;6.38;;;;;;;36.76;26.10;100348.59;5111030;28;20394;-60
2021/06/23 03:47:42;;;;;;;14.52;6.28;;;;;;;37.11;25.59;100314.34;5110540;28;20483;-60
2021/06/23 03:50:09;;;;;;;19.30;6.22;;;;;;;37.53;24.93;100329.66;5079574;28;20043;-61
2021/06/23 03:52:34;;;;;;;14.05;5.95;;;;;;;37.95;24.43;100332.06;5090446;28;20043;-62
2021/06/23 03:55:01;;;;;;;19.63;6.32;;;;;;;38.33;23.46;100335.81;5090226;28;20040;-59
2021/06/23 03:57:28;;;;;;;15.02;5.72;;;;;;;38.67;23.03;100319.19;5090129;28;20042;-60
2021/06/23 03:59:53;;;;;;;17.85;6.22;;;;;;;39.16;22.23;100322.69;5096554;28;20028;-61
2021/06/23 04:02:19;;;;;;;18.08;5.70;;;;;;;39.72;21.80;100322.84;5110451;28;20043;-59
2021/06/23 04:04:45;;;;;;;14.38;5.50;;;;;;;40.19;21.12;100332.03;5110592;28;20118;-61
2021/06/23 04:07:15;;;;;;;14.07;5.80;;;;;;;40.74;20.36;100344.38;5110872;28;20046;-60
2021/06/23 04:09:41;;;;;;;11.52;6.03;;;;;;;41.21;19.82;100348.91;5108893;28;20034;-61
2021/06/23 04:12:08;;;;;;;16.00;5.95;;;;;;;41.49;19.34;100342.34;5090166;28;20507;-60
2021/06/23 04:14:34;;;;;;;11.05;5.30;;;;;;;41.81;19.25;100343.19;5088724;28;20036;-61
2021/06/23 04:16:59;;;;;;;13.93;5.72;;;;;;;42.11;18.96;100343.53;5090310;28;20344;-61
2021/06/23 04:19:25;;;;;;;13.98;5.45;;;;;;;42.39;18.16;100346.91;5090024;28;20035;-61
2021/06/23 04:21:50;;;;;;;17.85;5.97;;;;;;;42.79;17.82;100345.19;5091083;28;20070;-61
2021/06/23 04:24:16;;;;;;;15.68;6.10;;;;;;;43.29;17.27;100339.09;5089256;28;20036;-61
2021/06/23 04:26:43;;;;;;;11.57;5.03;;;;;;;43.81;16.88;100342.13;5090271;28;20078;-60
2021/06/23 04:29:09;;;;;;;11.68;5.18;;;;;;;43.89;16.18;100296.13;5090347;28;20036;-60
2021/06/23 04:31:34;;;;;;;13.02;5.15;;;;;;;44.42;15.87;100322.09;5091132;28;20032;-60
2021/06/23 04:34:00;;;;;;;13.65;5.38;;;;;;;45.01;15.46;100328.00;5090107;28;20040;-59
2021/06/23 04:36:25;;;;;;;12.23;5.57;;;;;;;45.55;15.02;100338.41;5089690;28;20024;-60
2021/06/23 04:38:51;;;;;;;12.20;5.43;;;;;;;45.72;14.93;100291.34;5103102;28;20028;-61
2021/06/23 04:41:16;;;;;;;12.90;4.88;;;;;;;46.27;14.17;100344.88;5103375;28;20035;-60
2021/06/23 04:43:42;;;;;;;13.23;5.03;;;;;;;46.50;14.04;100336.75;5089954;28;20036;-56
2021/06/23 04:46:07;;;;;;;12.32;5.05;;;;;;;46.91;13.66;100338.75;5088695;28;20039;-61
2021/06/23 04:48:33;;;;;;;9.50;4.25;;;;;;;47.18;13.12;100342.78;5102029;28;20040;-59
2021/06/23 04:50:59;;;;;;;14.15;4.93;;;;;;;47.65;12.53;100355.47;5107062;28;20456;-55
2021/06/23 04:53:25;;;;;;;14.40;4.55;;;;;;;48.18;12.07;100336.50;5102538;28;20074;-56
2021/06/23 04:55:53;;;;;;;8.73;4.70;;;;;;;48.61;11.23;100340.34;5109535;28;20436;-60
2021/06/23 04:58:19;;;;;;;7.80;4.35;;;;;;;49.04;10.75;100297.78;5092854;28;20509;-59
2021/06/23 05:00:44;;;;;;;8.07;4.45;;;;;;;49.63;10.85;100342.38;5089888;28;20027;-59
2021/06/23 05:03:10;;;;;;;11.15;4.32;;;;;;;49.90;10.53;100336.75;5092595;28;20035;-60
2021/06/23 05:05:35;;;;;;;6.75;4.25;;;;;;;50.21;10.08;100340.50;5093509;28;20054;-60
2021/06/23 05:08:01;;;;;;;9.05;3.85;;;;;;;50.54;9.84;100344.66;5093654;28;20067;-60
2021/06/23 05:10:27;;;;;;;9.38;3.90;;;;;;;51.01;9.44;100325.38;5093806;28;20031;-61
2021/06/23 05:12:52;;;;;;;7.40;3.78;;;;;;;51.45;8.74;100329.50;5093851;28;20052;-60
2021/06/23 05:15:18;;;;;;;10.73;4.40;;;;;;;51.73;8.46;100296.72;5093203;28;20079;-61
2021/06/23 05:17:43;;;;;;;5.95;3.88;;;;;;;52.58;8.26;100342.59;5093859;28;20079;-58
2021/06/23 05:20:10;;;;;;;21.15;5.65;;;;;;;53.07;7.61;100348.13;5093873;28;20032;-59
2021/06/23 05:22:36;;;;;;;9.20;3.92;;;;;;;53.76;6.78;100354.78;5093271;28;20440;-59
2021/06/23 05:25:02;;;;;;;9.52;3.85;;;;;;;54.28;6.64;100356.38;5093137;28;20123;-59
2021/06/23 05:27:28;;;;;;;7.10;3.88;;;;;;;54.58;6.61;100349.34;5093418;28;20105;-59
2021/06/23 05:29:53;;;;;;;11.27;4.47;;;;;;;54.93;6.38;100350.44;5093643;28;20467;-59
2021/06/23 05:32:19;;;;;;;7.07;4.43;;;;;;;55.30;6.42;100351.03;5093275;28;20444;-59
2021/06/23 05:34:44;;;;;;;7.03;3.83;;;;;;;55.38;5.89;100351.84;5091681;28;20060;-59
2021/06/23 05:37:10;;;;;;;7.88;4.28;;;;;;;55.26;6.21;100347.38;5093120;28;20097;-57
2021/06/23 05:39:35;;;;;;;9.73;4.28;;;;;;;55.40;6.13;100348.56;5093060;28;20105;-60
2021/06/23 05:42:01;;;;;;;9.38;4.55;;;;;;;55.87;5.59;100333.81;5092937;28;20586;-59
2021/06/23 05:44:28;;;;;;;10.35;4.57;;;;;;;56.42;5.27;100337.78;5092919;28;20040;-60
2021/06/23 05:46:53;;;;;;;11.73;5.20;;;;;;;56.95;5.23;100340.41;5092561;28;20100;-60
2021/06/23 05:49:19;;;;;;;7.25;4.63;;;;;;;57.23;4.82;100355.59;5092627;28;20461;-61
2021/06/23 05:51:44;;;;;;;10.65;6.03;;;;;;;57.47;4.87;100336.31;5093208;28;20071;-60
2021/06/23 05:54:10;;;;;;;7.70;5.53;;;;;;;57.66;4.62;100342.63;5092573;28;20431;-60
2021/06/23 05:56:35;;;;;;;8.82;5.50;;;;;;;57.74;4.67;100338.34;5092753;28;20066;-60
2021/06/23 05:59:01;;;;;;;5.30;4.78;;;;;;;58.15;4.26;100338.44;5092482;28;20392;-60
2021/06/23 06:01:26;;;;;;;8.52;5.47;;;;;;;58.73;4.04;100340.16;5092297;28;20110;-61
2021/06/23 06:03:52;;;;;;;6.68;5.00;;;;;;;59.17;3.62;100337.94;5092956;28;20354;-63
2021/06/23 06:06:18;;;;;;;6.65;4.80;;;;;;;59.23;3.57;100340.28;5094929;28;20039;-62
2021/06/23 06:08:43;;;;;;;6.90;5.53;;;;;;;59.11;3.39;100318.69;5101164;28;20028;-63
2021/06/23 06:11:09;;;;;;;6.93;5.95;;;;;;;59.11;3.81;100327.34;5103136;28;20518;-62
2021/06/23 06:13:34;;;;;;;6.20;5.50;;;;;;;59.20;3.38;100327.56;5102000;28;20046;-62
2021/06/23 06:16:00;;;;;;;7.57;6.63;;;;;;;59.47;3.57;100326.50;5099957;28;20027;-62
2021/06/23 06:18:26;;;;;;;7.83;6.47;;;;;;;59.77;2.88;100341.84;5103205;28;20032;-62
2021/06/23 06:20:57;;;;;;;7.45;6.72;;;;;;;60.04;2.56;100335.72;5101828;28;20307;-61
2021/06/23 06:23:23;;;;;;;7.30;6.65;;;;;;;60.30;2.64;100315.59;5100791;28;20238;-62
2021/06/23 06:25:48;;;;;;;7.85;6.30;;;;;;;60.66;2.31;100322.41;5110041;28;20131;-62
2021/06/23 06:28:14;;;;;;;6.77;5.73;;;;;;;60.99;2.59;100315.59;5112692;28;20047;-63
2021/06/23 06:30:39;;;;;;;8.18;7.38;;;;;;;61.15;2.47;100303.88;5112485;28;20657;-61
2021/06/23 06:33:05;;;;;;;8.37;7.67;;;;;;;61.46;1.93;100322.72;5112349;28;20498;-62
2021/06/23 06:35:30;;;;;;;7.95;7.25;;;;;;;61.61;2.26;100313.53;5112804;27;20620;-64
2021/06/23 06:37:56;;;;;;;9.75;7.18;;;;;;;61.83;1.55;100328.09;5112431;28;20513;-63
2021/06/23 06:40:22;;;;;;;9.80;8.27;;;;;;;61.82;2.20;100338.06;5100714;28;20047;-63
2021/06/23 06:42:48;;;;;;;8.55;7.85;;;;;;;62.04;1.86;100329.38;5101818;28;20043;-62
2021/06/23 06:45:13;;;;;;;7.95;7.38;;;;;;;61.94;1.95;100305.31;5099034;27;20066;-62
2021/06/23 06:47:39;;;;;;;8.27;7.68;;;;;;;62.23;1.13;100323.75;5101190;28;20035;-63
2021/06/23 06:50:06;;;;;;;8.43;7.82;;;;;;;62.42;1.27;100330.47;5100355;28;20483;-61
2021/06/23 06:52:32;;;;;;;9.55;8.52;;;;;;;62.65;1.30;100326.25;5099179;28;20036;-62
2021/06/23 06:54:58;;;;;;;10.45;9.55;;;;;;;62.47;1.16;100314.56;5101572;28;20046;-61
2021/06/23 06:57:24;;;;;;;9.32;8.45;;;;;;;62.17;1.64;100314.84;5100382;28;20465;-62
2021/06/23 06:59:49;;;;;;;10.20;9.35;;;;;;;62.11;1.21;100311.78;5099079;28;20028;-62
2021/06/23 07:02:15;;;;;;;11.10;8.80;;;;;;;62.00;1.39;100311.31;5101463;28;20084;-62
2021/06/23 07:04:40;;;;;;;10.73;9.07;;;;;;;61.73;1.31;100309.81;5100218;28;20349;-62
2021/06/23 07:07:05;;;;;;;12.10;9.30;;;;;;;61.51;1.82;100315.53;5099901;28;20076;-62
2021/06/23 07:09:31;;;;;;;9.20;8.32;;;;;;;61.52;1.32;100308.50;5100657;28;20107;-62
2021/06/23 07:11:56;;;;;;;10.50;8.13;;;;;;;61.92;1.54;100304.97;5100927;28;20099;-61
2021/06/23 07:14:22;;;;;;;9.60;7.20;;;;;;;62.22;1.34;100299.72;5099620;28;20141;-61
2021/06/23 07:16:47;;;;;;;11.07;8.73;;;;;;;62.45;1.11;100309.22;5101022;28;20254;-61
2021/06/23 07:19:14;;;;;;;9.85;8.93;;;;;;;62.75;1.21;100312.63;5099111;28;20027;-61
2021/06/23 07:21:40;;;;;;;10.85;10.10;;;;;;;63.16;1.26;100318.44;5099608;28;20355;-62
2021/06/23 07:24:07;;;;;;;14.20;10.40;;;;;;;63.24;1.05;100295.72;5100938;28;20047;-62
2021/06/23 07:26:32;;;;;;;12.65;11.40;;;;;;;63.56;0.70;100320.50;5098971;28;20514;-63
2021/06/23 07:29:01;;;;;;;15.10;12.98;;;;;;;63.62;0.83;100311.91;5099909;28;20035;-63
2021/06/23 07:39:14;;;;;;;15.13;13.93;;;;;;;63.47;1.05;100325.44;5098355;28;20051;-61
2021/06/23 07:41:42;;;;;;;14.95;13.93;;;;;;;63.34;0.96;100329.28;5099115;28;20383;-62
2021/06/23 07:44:09;;;;;;;15.40;14.15;;;;;;;63.09;1.25;100278.09;5093341;28;20024;-61
2021/06/23 07:46:39;;;;;;;16.17;14.57;;;;;;;63.24;1.48;100308.09;5090354;28;20081;-62
2021/06/23 07:49:09;;;;;;;14.70;13.48;;;;;;;63.35;1.66;100309.78;5104554;28;20035;-61
2021/06/23 07:54:34;;;;;;;17.08;15.55;;;;;;;64.28;0.84;100321.44;5105345;28;20038;-61
2021/06/23 08:03:13;;;;;;;21.17;19.52;;;;;;;64.59;0.52;100317.47;5110149;28;20039;-62
2021/06/23 08:10:47;;;;;;;15.90;14.80;;;;;;;62.26;2.01;100283.03;5099106;28;20114;-62
2021/06/23 08:13:13;;;;;;;15.98;14.98;;;;;;;61.79;1.55;100307.13;5094601;28;20044;-62
2021/06/23 08:15:41;;;;;;;15.60;13.93;;;;;;;61.24;1.58;100319.75;5094233;28;20089;-62
2021/06/23 08:18:07;;;;;;;12.38;11.27;;;;;;;60.55;2.17;100311.16;5097468;28;20471;-60
2021/06/23 08:20:35;;;;;;;12.75;10.75;;;;;;;59.51;2.60;100314.84;5089887;28;20078;-62
2021/06/23 08:23:01;;;;;;;10.20;9.20;;;;;;;57.91;3.09;100301.84;5090599;28;20035;-62
2021/06/23 08:25:26;;;;;;;8.57;7.50;;;;;;;56.31;3.70;100309.16;5096806;28;20406;-62
2021/06/23 08:27:53;;;;;;;7.13;6.22;;;;;;;54.19;5.07;100318.75;5091964;28;20058;-62
2021/06/23 08:30:19;;;;;;;9.25;5.35;;;;;;;52.02;6.37;100291.25;5110597;28;20035;-61
2021/06/23 08:32:46;;;;;;;8.35;5.18;;;;;;;50.27;7.56;100319.88;5099690;28;20035;-61
2021/06/23 08:35:12;;;;;;;8.32;4.80;;;;;;;48.26;8.51;100281.53;5097003;28;20050;-61
2021/06/23 08:37:39;;;;;;;9.32;4.80;;;;;;;47.06;9.62;100306.81;5095351;28;20031;-61
2021/06/23 08:40:08;;;;;;;9.48;4.45;;;;;;;45.91;10.37;100302.06;5106726;28;20191;-61
2021/06/23 08:42:33;;;;;;;6.82;4.25;;;;;;;45.06;10.96;100287.38;5112475;28;20554;-62
2021/06/23 08:44:59;;;;;;;9.75;4.70;;;;;;;44.27;12.08;100280.34;5103027;28;20119;-62
2021/06/23 08:47:25;;;;;;;11.15;5.15;;;;;;;43.71;12.70;100303.84;5093924;28;20141;-62
2021/06/23 08:49:52;;;;;;;10.73;4.55;;;;;;;43.26;13.18;100305.91;5094102;28;20043;-62
2021/06/23 08:52:18;;;;;;;11.45;4.72;;;;;;;42.82;12.96;100297.50;5094020;28;20035;-62
2021/06/23 08:54:45;;;;;;;10.52;4.72;;;;;;;42.34;13.57;100287.16;5093641;28;20081;-61
2021/06/23 08:57:11;;;;;;;13.15;4.78;;;;;;;41.99;13.79;100304.75;5093638;28;20085;-62
2021/06/23 08:59:41;;;;;;;10.38;4.97;;;;;;;41.65;14.36;100279.00;5092531;28;20048;-62
2021/06/23 09:02:12;;;;;;;11.40;5.03;;;;;;;41.06;14.73;100234.16;5095305;28;20126;-62
2021/06/23 09:04:55;;;;;;;11.48;5.10;;;;;;;40.96;14.38;100269.75;5092027;28;20043;-61
2021/06/23 09:07:48;;;;;;;11.35;4.82;;;;;;;40.98;15.11;100292.72;5086864;28;20127;-61
2021/06/23 09:10:23;;;;;;;11.05;4.90;;;;;;;40.79;15.28;100297.72;5099692;28;20437;-69
2021/06/23 09:13:04;;;;;;;13.00;4.65;;;;;;;40.70;15.45;100301.22;5096153;28;20478;-69
2021/06/23 09:15:48;;;;;;;5.75;4.70;;;;;;;40.65;15.40;100301.34;5098698;28;20399;-76
2021/06/23 09:18:27;;;;;;;11.93;4.75;;;;;;;40.45;15.40;100299.84;5102558;28;20123;-70
2021/06/23 09:20:59;;;;;;;7.30;4.18;;;;;;;40.30;15.92;100304.63;5102026;28;20039;-74
2021/06/23 09:23:41;;;;;;;8.98;4.40;;;;;;;40.40;15.45;100302.78;5098861;28;20187;-68
2021/06/23 09:26:16;;;;;;;13.40;5.03;;;;;;;40.41;15.46;100299.63;5100809;28;20070;-65
2021/06/23 09:28:43;;;;;;;9.70;4.45;;;;;;;40.37;15.78;100297.75;5103146;28;20028;-65
2021/06/23 09:31:09;;;;;;;11.93;4.97;;;;;;;40.28;15.71;100284.50;5101527;28;20084;-68
2021/06/23 09:33:37;;;;;;;9.50;4.93;;;;;;;40.36;15.81;100290.50;5101241;28;20127;-66
2021/06/23 09:36:12;;;;;;;12.23;4.78;;;;;;;40.39;16.23;100293.50;5103639;28;20032;-66
2021/06/23 09:38:42;;;;;;;13.63;5.13;;;;;;;40.28;15.46;100283.69;5103366;28;20104;-64
2021/06/23 09:41:34;;;;;;;16.40;5.95;;;;;;;40.46;15.69;100295.91;5113067;28;20457;-68
2021/06/23 09:44:08;;;;;;;15.73;5.70;;;;;;;40.28;15.81;100290.09;5112578;28;20375;-68
2021/06/23 09:46:36;;;;;;;13.57;5.97;;;;;;;40.22;16.04;100293.28;5112323;28;20077;-68
2021/06/23 09:49:22;;;;;;;9.35;5.55;;;;;;;40.05;16.02;100280.75;5112799;28;20536;-66
2021/06/23 09:51:56;;;;;;;14.07;5.75;;;;;;;39.73;16.34;100272.09;5112745;28;20023;-69
2021/06/23 09:54:27;;;;;;;14.38;5.55;;;;;;;39.39;16.69;100214.47;5113839;28;20084;-67
2021/06/23 09:57:14;;;;;;;12.88;5.57;;;;;;;39.71;17.15;100271.59;5113116;27;20032;-68
2021/06/23 09:59:42;;;;;;;11.07;4.75;;;;;;;39.55;17.39;100268.25;5112731;28;20035;-68
2021/06/23 10:02:30;;;;;;;10.02;5.03;;;;;;;39.42;17.45;100258.66;5112082;28;20035;-67
2021/06/23 10:04:59;;;;;;;12.35;5.45;;;;;;;39.22;17.20;100265.44;5112763;27;20122;-64
2021/06/23 10:07:48;;;;;;;7.25;5.13;;;;;;;39.38;17.00;100262.41;5113011;28;20486;-68
2021/06/23 10:10:18;;;;;;;14.82;5.45;;;;;;;39.29;17.26;100271.47;5113312;28;20410;-67
2021/06/23 10:12:54;;;;;;;14.43;6.10;;;;;;;39.26;16.29;100274.88;5112143;28;20055;-67
2021/06/23 10:15:21;;;;;;;12.07;6.20;;;;;;;39.12;16.86;100251.63;5112448;28;20087;-66
2021/06/23 10:17:47;;;;;;;11.43;6.00;;;;;;;39.05;16.88;100238.03;5112737;28;20028;-66
2021/06/23 10:20:15;;;;;;;12.18;5.72;;;;;;;39.20;17.13;100262.13;5112521;28;20092;-69
2021/06/23 10:22:43;;;;;;;12.95;5.80;;;;;;;39.18;16.52;100261.59;5112545;28;20039;-67
2021/06/23 10:25:12;;;;;;;11.30;6.40;;;;;;;39.22;17.03;100257.03;5112879;28;20031;-67
2021/06/23 10:27:44;;;;;;;13.32;5.97;;;;;;;38.95;17.13;100221.38;5112629;28;20075;-66
2021/06/23 10:30:10;;;;;;;15.23;5.80;;;;;;;39.12;16.91;100249.66;5112124;27;20081;-68
2021/06/23 10:32:36;;;;;;;14.77;6.05;;;;;;;39.11;16.97;100233.19;5111894;28;20058;-67
2021/06/23 10:35:02;;;;;;;12.90;6.10;;;;;;;39.28;17.32;100255.00;5112299;28;20032;-66
2021/06/23 10:37:32;;;;;;;13.32;6.32;;;;;;;39.27;16.95;100244.94;5112661;28;20080;-65
2021/06/23 10:39:58;;;;;;;14.27;5.90;;;;;;;39.27;16.67;100240.16;5112104;28;20078;-61
2021/06/23 10:42:24;;;;;;;7.78;5.60;;;;;;;39.43;16.93;100253.91;5112311;28;20478;-66
2021/06/23 10:44:55;;;;;;;13.25;6.47;;;;;;;39.39;17.18;100242.47;5112544;28;20031;-67
2021/06/23 10:48:00;;;;;;;14.05;6.32;;;;;;;39.60;16.60;100256.09;5112270;28;20043;-67
2021/06/23 10:50:26;;;;;;;13.90;6.63;;;;;;;39.48;17.09;100239.78;5108852;28;20058;-66
2021/06/23 10:52:51;;;;;;;9.38;5.82;;;;;;;39.39;17.11;100242.47;5112055;28;20043;-65
2021/06/23 10:55:20;;;;;;;12.70;6.57;;;;;;;39.33;17.02;100254.88;5112494;28;20032;-65
2021/06/23 10:57:48;;;;;;;12.57;6.50;;;;;;;39.23;17.91;100244.69;5111380;28;20035;-66
2021/06/23 11:00:16;;;;;;;18.80;6.55;;;;;;;39.25;17.22;100250.81;5111780;28;20032;-67
2021/06/23 11:02:46;;;;;;;11.93;6.75;;;;;;;39.19;17.32;100243.66;5112042;28;20117;-65
2021/06/23 11:05:18;;;;;;;16.33;6.65;;;;;;;39.16;17.10;100235.88;5110857;28;20031;-66
2021/06/23 11:07:45;;;;;;;13.63;6.30;;;;;;;39.16;17.45;100233.06;5111840;28;20035;-65
2021/06/23 11:10:13;;;;;;;15.88;6.25;;;;;;;39.08;17.82;100231.00;5111537;28;20402;-63
2021/06/23 11:12:55;;;;;;;12.80;6.68;;;;;;;38.94;18.01;100242.97;5111256;28;20059;-66
2021/06/23 11:15:22;;;;;;;14.00;6.70;;;;;;;38.71;18.00;100239.94;5112049;28;20050;-64
2021/06/23 11:17:50;;;;;;;15.18;6.70;;;;;;;38.52;18.27;100220.38;5111756;28;20224;-65
2021/06/23 11:20:18;;;;;;;16.80;6.85;;;;;;;38.52;18.71;100231.56;5111254;28;20367;-65
2021/06/23 11:22:45;;;;;;;10.95;6.53;;;;;;;38.40;18.40;100226.41;5111590;28;20119;-65
2021/06/23 11:25:23;;;;;;;16.58;6.72;;;;;;;38.51;19.01;100217.88;5111722;27;20055;-66
2021/06/23 11:28:07;;;;;;;14.85;6.55;;;;;;;38.51;18.81;100223.47;5111151;28;20470;-64
2021/06/23 11:30:34;;;;;;;18.17;6.90;;;;;;;38.38;18.89;100225.03;5111186;28;20062;-64
2021/06/23 11:33:27;;;;;;;12.27;6.57;;;;;;;38.39;18.95;100227.53;5111335;28;20491;-65
2021/06/23 11:36:05;;;;;;;15.95;6.80;;;;;;;38.26;19.55;100229.13;5111001;28;20042;-66
2021/06/23 11:38:31;;;;;;;19.13;6.80;;;;;;;38.05;19.82;100231.34;5111104;28;20138;-65
2021/06/23 11:40:57;;;;;;;12.30;6.50;;;;;;;37.89;19.96;100225.09;5111677;28;20368;-65
2021/06/23 11:43:24;;;;;;;13.93;6.88;;;;;;;37.81;19.92;100229.38;5111296;28;20067;-64
2021/06/23 11:45:50;;;;;;;18.50;7.45;;;;;;;37.71;19.65;100218.31;5104480;28;20038;-64
2021/06/23 11:48:17;;;;;;;15.40;7.07;;;;;;;37.74;20.01;100226.09;5106800;28;20024;-65